Time;durP1;ratioP1;P1;durP2;ratioP2;P2;SDS_P1;SDS_P2;PMS_P1;PMS_P2;Temp;Humidity;BMP_temperature;BMP_pressure;BME280_temperature;BME280_humidity;BME280_pressure;Samples;Min_cycle;Max_cycle;Signal;HPM_P1;HPM_P2
2021/11/25 00:00:34;;;;;;;56.85;19.83;;;;;;;;;;5006118;28;20029;-57
2021/11/25 00:03:00;;;;;;;48.25;17.40;;;;;;;;;;5008294;28;20065;-59
2021/11/25 00:05:26;;;;;;;39.42;14.73;;;;;;;;;;5003801;28;20429;-56
2021/11/25 00:07:51;;;;;;;44.58;15.32;;;;;;;;;;5001476;28;20499;-59
2021/11/25 00:10:17;;;;;;;43.95;15.48;;;;;;;;;;5000750;28;20056;-58
2021/11/25 00:12:43;;;;;;;69.28;20.08;;;;;;;;;;5004843;28;20038;-57
2021/11/25 00:15:11;;;;;;;80.95;25.08;;;;;;;;;;5000434;28;20065;-58
2021/11/25 00:17:38;;;;;;;59.30;19.02;;;;;;;;;;5000306;28;20026;-58
2021/11/25 00:20:07;;;;;;;50.55;16.70;;;;;;;;;;5001362;28;20033;-57
2021/11/25 00:22:32;;;;;;;43.77;15.20;;;;;;;;;;5006458;28;20033;-58
2021/11/25 00:24:58;;;;;;;51.95;17.25;;;;;;;;;;5002889;28;20030;-57
2021/11/25 00:27:23;;;;;;;68.85;20.73;;;;;;;;;;5000919;28;20118;-55
2021/11/25 00:29:49;;;;;;;82.53;24.27;;;;;;;;;;5003057;28;20471;-58
2021/11/25 00:32:14;;;;;;;72.07;24.75;;;;;;;;;;5001431;28;20033;-56
2021/11/25 00:34:40;;;;;;;58.20;18.63;;;;;;;;;;5000151;28;20149;-56
2021/11/25 00:37:05;;;;;;;61.47;19.25;;;;;;;;;;5003162;28;20056;-57
2021/11/25 00:39:31;;;;;;;43.33;15.25;;;;;;;;;;5002561;28;20137;-57
2021/11/25 00:41:56;;;;;;;52.30;17.80;;;;;;;;;;5005546;28;20047;-57
2021/11/25 00:44:21;;;;;;;74.90;24.45;;;;;;;;;;5005626;28;20030;-57
2021/11/25 00:46:47;;;;;;;57.47;19.45;;;;;;;;;;4998723;28;20504;-58
2021/11/25 00:49:12;;;;;;;39.40;15.20;;;;;;;;;;5001679;28;20030;-57
2021/11/25 00:51:38;;;;;;;58.92;19.60;;;;;;;;;;5001358;28;20520;-58
2021/11/25 00:54:04;;;;;;;53.60;18.27;;;;;;;;;;5003402;28;20423;-57
2021/11/25 00:56:29;;;;;;;69.57;23.02;;;;;;;;;;4999688;28;20394;-58
2021/11/25 00:58:55;;;;;;;81.78;24.02;;;;;;;;;;5001599;28;20289;-56
2021/11/25 01:01:20;;;;;;;46.72;17.92;;;;;;;;;;4999141;28;20153;-58
2021/11/25 01:03:46;;;;;;;72.32;22.02;;;;;;;;;;5002399;28;20400;-57
2021/11/25 01:06:12;;;;;;;78.43;25.02;;;;;;;;;;5000403;28;20030;-58
2021/11/25 01:08:37;;;;;;;73.20;21.20;;;;;;;;;;5003916;28;20026;-59
2021/11/25 01:11:04;;;;;;;60.67;20.85;;;;;;;;;;5005152;28;20049;-57
2021/11/25 01:13:29;;;;;;;56.92;17.33;;;;;;;;;;5000424;28;20026;-57
2021/11/25 01:15:55;;;;;;;46.03;15.82;;;;;;;;;;5000623;28;20024;-57
2021/11/25 01:18:20;;;;;;;36.97;14.45;;;;;;;;;;5001483;28;20465;-59
2021/11/25 01:20:48;;;;;;;49.10;16.98;;;;;;;;;;5000959;28;20446;-57
2021/11/25 01:23:19;;;;;;;43.03;15.30;;;;;;;;;;5001303;28;20038;-57
2021/11/25 01:25:45;;;;;;;38.50;14.95;;;;;;;;;;5003273;28;20328;-57
2021/11/25 01:28:13;;;;;;;42.97;15.18;;;;;;;;;;4999816;28;20034;-57
2021/11/25 01:30:44;;;;;;;44.47;16.50;;;;;;;;;;4999586;28;20488;-57
2021/11/25 01:33:10;;;;;;;40.05;14.40;;;;;;;;;;4998387;28;20033;-56
2021/11/25 01:35:37;;;;;;;40.70;15.10;;;;;;;;;;5001210;28;20028;-58
2021/11/25 01:38:03;;;;;;;47.53;17.13;;;;;;;;;;5001372;28;20030;-57
2021/11/25 01:40:29;;;;;;;53.70;18.05;;;;;;;;;;5010204;28;20088;-56
2021/11/25 01:42:54;;;;;;;56.88;18.80;;;;;;;;;;5008758;28;20109;-58
2021/11/25 01:45:24;;;;;;;63.90;20.73;;;;;;;;;;5005461;28;20109;-57
2021/11/25 01:47:50;;;;;;;66.50;21.00;;;;;;;;;;5004183;28;20056;-57
2021/11/25 01:50:17;;;;;;;106.68;25.35;;;;;;;;;;5008843;28;20100;-58
2021/11/25 01:52:44;;;;;;;86.50;24.45;;;;;;;;;;5004084;28;20022;-58
2021/11/25 01:55:10;;;;;;;72.75;20.23;;;;;;;;;;5006417;28;20029;-57
2021/11/25 01:57:36;;;;;;;61.47;18.77;;;;;;;;;;5003272;28;20037;-57
2021/11/25 02:00:11;;;;;;;47.63;16.20;;;;;;;;;;5006927;28;20033;-57
2021/11/25 02:02:38;;;;;;;69.32;21.23;;;;;;;;;;5005509;28;20053;-56
2021/11/25 02:05:03;;;;;;;75.13;20.55;;;;;;;;;;5005631;28;20448;-58
2021/11/25 02:07:29;;;;;;;60.00;19.30;;;;;;;;;;5002810;28;20064;-55
2021/11/25 02:09:54;;;;;;;62.20;18.65;;;;;;;;;;5007849;28;20027;-57
2021/11/25 02:12:20;;;;;;;50.60;16.83;;;;;;;;;;5008753;28;20373;-57
2021/11/25 02:14:46;;;;;;;55.55;18.67;;;;;;;;;;5007991;28;20830;-60
2021/11/25 02:17:13;;;;;;;46.13;16.70;;;;;;;;;;5006031;28;20049;-57
2021/11/25 02:19:42;;;;;;;45.35;15.40;;;;;;;;;;5006618;28;20053;-57
2021/11/25 02:22:07;;;;;;;42.88;14.82;;;;;;;;;;5002607;28;20033;-57
2021/11/25 02:24:33;;;;;;;37.13;15.23;;;;;;;;;;4998554;28;20156;-56
2021/11/25 02:26:59;;;;;;;40.55;13.95;;;;;;;;;;4998515;28;20069;-57
2021/11/25 02:29:25;;;;;;;40.95;14.13;;;;;;;;;;5005204;28;20037;-58
2021/11/25 02:31:51;;;;;;;38.38;13.38;;;;;;;;;;5005208;28;20100;-56
2021/11/25 02:34:17;;;;;;;41.38;15.27;;;;;;;;;;5003669;28;20538;-57
2021/11/25 02:36:42;;;;;;;44.42;15.63;;;;;;;;;;5001639;28;20062;-57
2021/11/25 02:39:08;;;;;;;43.92;14.82;;;;;;;;;;5001056;28;20076;-56
2021/11/25 02:41:33;;;;;;;43.45;14.65;;;;;;;;;;5006420;28;20496;-57
2021/11/25 02:43:59;;;;;;;83.70;24.65;;;;;;;;;;5022277;28;20124;-57
2021/11/25 02:46:24;;;;;;;57.13;18.67;;;;;;;;;;5004922;28;20037;-58
2021/11/25 02:48:53;;;;;;;46.13;15.73;;;;;;;;;;5002846;28;20596;-59
2021/11/25 02:51:26;;;;;;;59.23;17.50;;;;;;;;;;5005179;28;20313;-57
2021/11/25 02:53:52;;;;;;;50.92;16.92;;;;;;;;;;5005741;28;20033;-57
2021/11/25 02:56:23;;;;;;;53.75;17.85;;;;;;;;;;5003993;28;20034;-59
2021/11/25 02:58:50;;;;;;;47.30;15.93;;;;;;;;;;5005536;28;20046;-57
2021/11/25 03:01:23;;;;;;;42.20;14.07;;;;;;;;;;5000664;28;20037;-57
2021/11/25 03:03:49;;;;;;;41.17;14.07;;;;;;;;;;5004273;28;20030;-58
2021/11/25 03:06:15;;;;;;;47.25;15.98;;;;;;;;;;5003871;28;20049;-57
2021/11/25 03:08:41;;;;;;;38.67;15.00;;;;;;;;;;5002762;28;20101;-58
2021/11/25 03:11:09;;;;;;;43.90;15.10;;;;;;;;;;5005602;28;20392;-57
2021/11/25 03:13:38;;;;;;;40.05;14.77;;;;;;;;;;5001418;28;20048;-57
2021/11/25 03:16:04;;;;;;;39.13;14.40;;;;;;;;;;5003536;28;20021;-58
2021/11/25 03:18:29;;;;;;;40.50;15.30;;;;;;;;;;5004667;28;20080;-58
2021/11/25 03:20:57;;;;;;;33.85;13.68;;;;;;;;;;5001232;28;20401;-59
2021/11/25 03:23:26;;;;;;;36.60;13.13;;;;;;;;;;5007740;28;20584;-57
2021/11/25 03:25:53;;;;;;;33.08;13.30;;;;;;;;;;5004264;28;20033;-57
2021/11/25 03:28:20;;;;;;;33.75;12.55;;;;;;;;;;5001687;28;20030;-58
2021/11/25 03:30:53;;;;;;;34.30;12.90;;;;;;;;;;5005505;28;20021;-57
2021/11/25 03:33:19;;;;;;;32.25;12.40;;;;;;;;;;5005883;28;20460;-58
2021/11/25 03:35:44;;;;;;;36.13;12.25;;;;;;;;;;5003630;28;20117;-57
2021/11/25 03:38:10;;;;;;;32.85;11.35;;;;;;;;;;5004737;28;20030;-57
2021/11/25 03:40:35;;;;;;;28.88;11.43;;;;;;;;;;5006521;28;20026;-58
2021/11/25 03:43:01;;;;;;;31.35;11.88;;;;;;;;;;5005471;28;20068;-59
2021/11/25 03:45:26;;;;;;;29.50;11.40;;;;;;;;;;5001916;28;20026;-58
2021/11/25 03:47:52;;;;;;;30.27;11.20;;;;;;;;;;4998542;28;20091;-58
2021/11/25 03:50:17;;;;;;;29.27;11.13;;;;;;;;;;5001846;28;20041;-56
2021/11/25 03:52:43;;;;;;;29.73;10.70;;;;;;;;;;5002922;28;20488;-57
2021/11/25 03:55:11;;;;;;;34.70;12.93;;;;;;;;;;5003152;28;20473;-56
2021/11/25 03:57:37;;;;;;;36.17;12.90;;;;;;;;;;4999659;28;20061;-57
2021/11/25 04:00:05;;;;;;;38.22;13.93;;;;;;;;;;5004664;28;20041;-58
2021/11/25 04:02:31;;;;;;;32.92;12.18;;;;;;;;;;5001930;28;20527;-57
2021/11/25 04:04:56;;;;;;;31.48;12.35;;;;;;;;;;5003962;28;20116;-57
2021/11/25 04:07:22;;;;;;;33.58;12.32;;;;;;;;;;5004629;28;20111;-56
2021/11/25 04:09:47;;;;;;;30.70;11.32;;;;;;;;;;5000238;28;20496;-57
2021/11/25 04:12:13;;;;;;;32.58;11.68;;;;;;;;;;5002575;28;20305;-58
2021/11/25 04:14:38;;;;;;;32.55;12.00;;;;;;;;;;5005089;28;20042;-57
2021/11/25 04:17:04;;;;;;;28.52;10.82;;;;;;;;;;4999797;28;20058;-57
2021/11/25 04:19:29;;;;;;;32.85;12.27;;;;;;;;;;5004537;28;20041;-57
2021/11/25 04:21:55;;;;;;;31.75;11.30;;;;;;;;;;5002036;28;20021;-56
2021/11/25 04:24:21;;;;;;;26.73;10.23;;;;;;;;;;5001806;28;20026;-58
2021/11/25 04:26:46;;;;;;;30.85;10.70;;;;;;;;;;4997975;28;20030;-57
2021/11/25 04:29:12;;;;;;;24.98;9.15;;;;;;;;;;5001346;28;20418;-58
2021/11/25 04:37:09;;;;;;;32.00;11.82;;;;;;;;;;5002249;28;20472;-58
2021/11/25 04:39:35;;;;;;;37.25;13.90;;;;;;;;;;4999445;28;20109;-58
2021/11/25 04:42:00;;;;;;;49.45;17.80;;;;;;;;;;5002538;28;20021;-58
2021/11/25 04:44:25;;;;;;;48.65;17.02;;;;;;;;;;5000552;28;20114;-58
2021/11/25 04:46:51;;;;;;;39.08;14.65;;;;;;;;;;5003155;28;20034;-56
2021/11/25 04:49:16;;;;;;;40.25;14.88;;;;;;;;;;5000851;28;20061;-58
2021/11/25 04:51:42;;;;;;;47.53;16.13;;;;;;;;;;5000995;28;20262;-58
2021/11/25 04:54:07;;;;;;;42.88;15.38;;;;;;;;;;5001296;28;20080;-57
2021/11/25 04:56:33;;;;;;;46.03;17.00;;;;;;;;;;5002559;28;20381;-57
2021/11/25 04:58:59;;;;;;;50.25;17.52;;;;;;;;;;5003202;28;20033;-57
2021/11/25 05:01:24;;;;;;;37.53;14.18;;;;;;;;;;5000701;28;20042;-58
2021/11/25 05:03:50;;;;;;;33.65;12.52;;;;;;;;;;5004159;28;20061;-58
2021/11/25 05:06:16;;;;;;;30.30;11.48;;;;;;;;;;4996409;28;20044;-57
2021/11/25 05:08:42;;;;;;;32.95;11.55;;;;;;;;;;5002603;28;20120;-57
2021/11/25 05:11:07;;;;;;;32.72;12.27;;;;;;;;;;5003972;28;20109;-58
2021/11/25 05:13:33;;;;;;;39.70;13.98;;;;;;;;;;5004585;28;20479;-59
2021/11/25 05:16:00;;;;;;;46.83;15.10;;;;;;;;;;5002402;28;20100;-58
2021/11/25 05:18:26;;;;;;;36.55;13.02;;;;;;;;;;4998331;28;20033;-58
2021/11/25 05:20:52;;;;;;;32.08;12.40;;;;;;;;;;5003155;28;20120;-58
2021/11/25 05:23:18;;;;;;;30.08;11.80;;;;;;;;;;5002100;28;20457;-60
2021/11/25 05:25:43;;;;;;;31.92;11.60;;;;;;;;;;5001135;28;20231;-58
2021/11/25 05:28:09;;;;;;;32.83;11.82;;;;;;;;;;4998492;28;20056;-57
2021/11/25 05:30:34;;;;;;;32.50;12.57;;;;;;;;;;5003039;28;20036;-57
2021/11/25 05:33:01;;;;;;;32.53;12.80;;;;;;;;;;5003326;28;20053;-57
2021/11/25 05:35:27;;;;;;;32.58;12.15;;;;;;;;;;5002395;28;20113;-56
2021/11/25 05:37:53;;;;;;;31.23;11.95;;;;;;;;;;5001756;28;20484;-59
2021/11/25 05:40:19;;;;;;;36.85;13.32;;;;;;;;;;4999026;28;20026;-57
2021/11/25 05:42:44;;;;;;;33.83;11.15;;;;;;;;;;5001130;28;20515;-58
2021/11/25 05:45:12;;;;;;;34.42;11.88;;;;;;;;;;4997367;28;20369;-59
2021/11/25 05:47:39;;;;;;;31.83;11.77;;;;;;;;;;4998913;28;20420;-59
2021/11/25 05:50:08;;;;;;;33.70;12.15;;;;;;;;;;4996942;28;20030;-59
2021/11/25 05:52:34;;;;;;;36.17;13.32;;;;;;;;;;5002339;28;20331;-59
2021/11/25 05:55:00;;;;;;;37.55;14.07;;;;;;;;;;5002697;28;20081;-60
2021/11/25 05:57:25;;;;;;;34.33;12.88;;;;;;;;;;5000429;28;20026;-59
2021/11/25 05:59:51;;;;;;;30.77;11.88;;;;;;;;;;4998680;28;20403;-59
2021/11/25 06:02:17;;;;;;;38.33;12.32;;;;;;;;;;4999429;28;20026;-59
2021/11/25 06:04:42;;;;;;;36.53;12.68;;;;;;;;;;5003801;28;20061;-60
2021/11/25 06:07:09;;;;;;;35.17;13.10;;;;;;;;;;5001111;28;20114;-59
2021/11/25 06:09:34;;;;;;;45.80;13.43;;;;;;;;;;5001436;28;20037;-59
2021/11/25 06:12:01;;;;;;;31.83;12.57;;;;;;;;;;4998494;28;20145;-59
2021/11/25 06:14:26;;;;;;;37.80;14.20;;;;;;;;;;5000801;28;20579;-59
2021/11/25 06:16:52;;;;;;;35.40;14.55;;;;;;;;;;5000601;28;20030;-59
2021/11/25 06:19:17;;;;;;;36.75;14.18;;;;;;;;;;5002454;28;20076;-60
2021/11/25 06:21:42;;;;;;;24.35;8.93;;;;;;;;;;4998157;28;20084;-59
2021/11/25 06:24:08;;;;;;;35.58;13.77;;;;;;;;;;5001572;28;20029;-58
2021/11/25 06:26:39;;;;;;;36.78;13.90;;;;;;;;;;4996064;28;20022;-56
2021/11/25 06:29:05;;;;;;;39.60;14.38;;;;;;;;;;5000962;28;20045;-60
2021/11/25 06:31:30;;;;;;;37.83;14.10;;;;;;;;;;5002259;28;20308;-60
2021/11/25 06:33:56;;;;;;;34.45;12.75;;;;;;;;;;5003959;28;20041;-59
2021/11/25 06:36:21;;;;;;;39.60;13.38;;;;;;;;;;5003675;28;20053;-60
2021/11/25 06:38:47;;;;;;;34.92;13.80;;;;;;;;;;5003909;28;20596;-59
2021/11/25 06:41:12;;;;;;;33.80;13.80;;;;;;;;;;5007771;28;20072;-61
2021/11/25 06:43:37;;;;;;;35.03;13.80;;;;;;;;;;5000509;28;20034;-59
2021/11/25 06:46:03;;;;;;;47.25;17.55;;;;;;;;;;5001321;28;20037;-60
2021/11/25 06:48:29;;;;;;;50.38;17.73;;;;;;;;;;5000767;28;20032;-61
2021/11/25 06:50:54;;;;;;;39.95;14.20;;;;;;;;;;5004010;28;20049;-59
2021/11/25 06:53:21;;;;;;;40.63;14.48;;;;;;;;;;5005031;28;20374;-59
2021/11/25 06:55:46;;;;;;;41.40;14.68;;;;;;;;;;5003920;28;20018;-59
2021/11/25 06:58:12;;;;;;;43.88;15.88;;;;;;;;;;5003413;28;20123;-59
2021/11/25 07:00:37;;;;;;;55.65;19.40;;;;;;;;;;5003246;28;20068;-58
2021/11/25 07:03:03;;;;;;;51.05;18.35;;;;;;;;;;5004134;28;20133;-59
2021/11/25 07:05:28;;;;;;;40.45;13.95;;;;;;;;;;5005959;28;20473;-59
2021/11/25 07:07:55;;;;;;;41.25;14.93;;;;;;;;;;5003371;28;20046;-58
2021/11/25 07:10:21;;;;;;;47.63;17.77;;;;;;;;;;5004537;28;20041;-60
2021/11/25 07:12:46;;;;;;;43.85;15.48;;;;;;;;;;5002642;28;20026;-60
2021/11/25 07:15:15;;;;;;;44.67;17.88;;;;;;;;;;5000174;28;20065;-59
2021/11/25 07:17:41;;;;;;;42.72;17.42;;;;;;;;;;4999596;28;20068;-58
2021/11/25 07:20:09;;;;;;;41.80;16.25;;;;;;;;;;5002778;28;20021;-59
2021/11/25 07:22:34;;;;;;;44.05;16.05;;;;;;;;;;4998797;28;20105;-58
2021/11/25 07:25:00;;;;;;;40.83;14.85;;;;;;;;;;4995562;28;20429;-59
2021/11/25 07:27:26;;;;;;;37.78;13.93;;;;;;;;;;4991483;28;20025;-60
2021/11/25 07:29:52;;;;;;;39.10;13.73;;;;;;;;;;4980392;28;20408;-59
2021/11/25 07:32:18;;;;;;;40.30;14.65;;;;;;;;;;5001545;28;20436;-58
2021/11/25 07:34:44;;;;;;;40.72;14.73;;;;;;;;;;4997756;28;20523;-59
2021/11/25 07:37:09;;;;;;;50.47;17.25;;;;;;;;;;4999162;28;20026;-59
2021/11/25 07:39:35;;;;;;;50.55;16.90;;;;;;;;;;5005145;28;20038;-59
2021/11/25 07:42:01;;;;;;;43.00;15.23;;;;;;;;;;5001181;28;20030;-60
2021/11/25 07:44:27;;;;;;;48.58;16.63;;;;;;;;;;4993366;28;20050;-59
2021/11/25 07:46:52;;;;;;;48.40;17.38;;;;;;;;;;4996577;28;20133;-60
2021/11/25 07:49:20;;;;;;;47.35;15.85;;;;;;;;;;4998864;28;20026;-59
2021/11/25 07:51:46;;;;;;;49.08;16.85;;;;;;;;;;5001668;28;20030;-59
2021/11/25 07:54:12;;;;;;;47.40;16.55;;;;;;;;;;4997295;28;20088;-59
2021/11/25 07:56:38;;;;;;;43.92;16.13;;;;;;;;;;5003632;28;20022;-59
2021/11/25 07:59:04;;;;;;;41.40;15.38;;;;;;;;;;4995493;28;20030;-59
2021/11/25 08:01:31;;;;;;;48.35;15.90;;;;;;;;;;5000672;28;20105;-59
2021/11/25 08:03:57;;;;;;;50.25;15.63;;;;;;;;;;4998074;28;20436;-59
2021/11/25 08:06:22;;;;;;;41.03;14.85;;;;;;;;;;5002255;28;20149;-58
2021/11/25 08:08:48;;;;;;;39.50;14.13;;;;;;;;;;4997300;28;20068;-60
2021/11/25 08:11:13;;;;;;;40.83;14.48;;;;;;;;;;5002041;28;20493;-59
2021/11/25 08:13:38;;;;;;;40.60;15.23;;;;;;;;;;5002843;28;20052;-59
2021/11/25 08:16:04;;;;;;;40.33;14.52;;;;;;;;;;5003578;28;20022;-60
2021/11/25 08:18:30;;;;;;;41.13;13.55;;;;;;;;;;4996808;28;20032;-59
2021/11/25 08:20:55;;;;;;;37.42;13.73;;;;;;;;;;5003181;28;20045;-59
2021/11/25 08:23:21;;;;;;;43.97;16.65;;;;;;;;;;4995717;28;20022;-59
2021/11/25 08:25:49;;;;;;;48.47;16.63;;;;;;;;;;5001701;28;20124;-58
2021/11/25 08:28:15;;;;;;;45.47;16.75;;;;;;;;;;5002573;28;20029;-59
2021/11/25 08:30:40;;;;;;;55.97;19.27;;;;;;;;;;5003817;28;20535;-59
2021/11/25 08:33:06;;;;;;;51.78;18.20;;;;;;;;;;5000671;28;20054;-59
2021/11/25 08:35:31;;;;;;;59.65;20.42;;;;;;;;;;5003480;28;20064;-60
2021/11/25 08:38:00;;;;;;;185.68;52.38;;;;;;;;;;5001526;28;20037;-58
2021/11/25 08:40:25;;;;;;;117.97;34.88;;;;;;;;;;5002045;28;20117;-59
2021/11/25 08:42:51;;;;;;;95.30;30.00;;;;;;;;;;5001143;28;20120;-59
2021/11/25 08:45:17;;;;;;;78.70;25.40;;;;;;;;;;4999888;28;20053;-58
2021/11/25 08:47:43;;;;;;;49.53;16.98;;;;;;;;;;4999288;28;20038;-59
2021/11/25 08:50:11;;;;;;;56.10;17.40;;;;;;;;;;4998568;28;20038;-58
2021/11/25 08:52:37;;;;;;;54.55;17.73;;;;;;;;;;4998343;28;20162;-59
2021/11/25 08:55:03;;;;;;;47.33;15.90;;;;;;;;;;4998785;28;20034;-59
2021/11/25 08:57:29;;;;;;;46.20;17.00;;;;;;;;;;5001971;28;20096;-60
2021/11/25 08:59:54;;;;;;;46.50;15.90;;;;;;;;;;5002754;28;20029;-59
2021/11/25 09:02:20;;;;;;;48.03;16.02;;;;;;;;;;4999988;28;20561;-58
2021/11/25 09:04:46;;;;;;;47.17;15.55;;;;;;;;;;5003512;28;20026;-59
2021/11/25 09:07:11;;;;;;;43.45;15.10;;;;;;;;;;4999732;28;20606;-60
2021/11/25 09:09:37;;;;;;;47.97;17.67;;;;;;;;;;4999827;28;20041;-61
2021/11/25 09:12:04;;;;;;;49.63;18.42;;;;;;;;;;5001339;28;20112;-59
2021/11/25 09:14:29;;;;;;;47.17;17.95;;;;;;;;;;5001201;28;20030;-59
2021/11/25 09:16:54;;;;;;;48.38;17.40;;;;;;;;;;5001010;28;20022;-59
2021/11/25 09:19:20;;;;;;;43.60;15.50;;;;;;;;;;5000304;28;20063;-59
2021/11/25 09:21:45;;;;;;;48.45;16.52;;;;;;;;;;5000142;28;20033;-60
2021/11/25 09:24:11;;;;;;;45.90;16.83;;;;;;;;;;5000516;28;20038;-60
2021/11/25 09:26:38;;;;;;;40.92;15.35;;;;;;;;;;4999225;28;20037;-59
2021/11/25 09:29:05;;;;;;;43.72;15.30;;;;;;;;;;5004327;28;20025;-59
2021/11/25 09:31:32;;;;;;;47.42;16.75;;;;;;;;;;5001905;28;20033;-59
2021/11/25 09:33:58;;;;;;;48.67;16.80;;;;;;;;;;4999934;28;20357;-60
2021/11/25 09:36:25;;;;;;;46.67;16.92;;;;;;;;;;5000098;28;20053;-60
2021/11/25 09:38:53;;;;;;;44.15;15.93;;;;;;;;;;5002424;28;20797;-58
2021/11/25 09:41:18;;;;;;;44.85;15.57;;;;;;;;;;5001469;28;20124;-59
2021/11/25 09:43:44;;;;;;;41.92;15.30;;;;;;;;;;5001328;28;20448;-58
2021/11/25 09:46:11;;;;;;;47.00;16.75;;;;;;;;;;5017450;28;20359;-60
2021/11/25 09:48:37;;;;;;;49.22;16.85;;;;;;;;;;5000979;28;20120;-59
2021/11/25 09:51:05;;;;;;;42.47;15.13;;;;;;;;;;5001943;28;20034;-59
2021/11/25 09:53:33;;;;;;;45.38;16.35;;;;;;;;;;5001172;28;20559;-59
2021/11/25 09:55:59;;;;;;;41.67;15.35;;;;;;;;;;5001661;28;20022;-59
2021/11/25 09:58:28;;;;;;;43.28;15.57;;;;;;;;;;5000416;28;20089;-60
2021/11/25 10:01:02;;;;;;;42.30;16.33;;;;;;;;;;5003417;28;20048;-59
2021/11/25 10:03:28;;;;;;;43.63;15.98;;;;;;;;;;5005693;28;20091;-59
2021/11/25 10:05:56;;;;;;;46.25;15.95;;;;;;;;;;5006530;28;21712;-59
2021/11/25 10:08:32;;;;;;;46.70;17.13;;;;;;;;;;5002353;28;20030;-59
2021/11/25 10:10:57;;;;;;;40.90;14.23;;;;;;;;;;5004925;28;20553;-59
2021/11/25 10:13:26;;;;;;;47.08;16.15;;;;;;;;;;5011849;28;20030;-59
2021/11/25 10:15:56;;;;;;;43.70;17.17;;;;;;;;;;5008851;28;20103;-59
2021/11/25 10:18:22;;;;;;;46.72;16.35;;;;;;;;;;5005148;28;20040;-59
2021/11/25 10:20:50;;;;;;;48.33;15.88;;;;;;;;;;4999814;28;20034;-60
2021/11/25 10:23:21;;;;;;;46.42;17.48;;;;;;;;;;5007945;28;20463;-60
2021/11/25 10:26:10;;;;;;;49.83;17.10;;;;;;;;;;5000212;28;20114;-59
2021/11/25 10:28:39;;;;;;;57.20;19.15;;;;;;;;;;5005049;28;20064;-59
2021/11/25 10:31:10;;;;;;;62.17;20.50;;;;;;;;;;5007355;28;20036;-59
2021/11/25 10:33:47;;;;;;;55.40;19.67;;;;;;;;;;5007612;28;20084;-59
2021/11/25 10:36:27;;;;;;;48.00;17.30;;;;;;;;;;5003093;28;20519;-59
2021/11/25 10:41:20;;;;;;;42.42;15.93;;;;;;;;;;5003326;28;19928;-59
2021/11/25 10:44:05;;;;;;;47.72;17.13;;;;;;;;;;5005185;28;20032;-59
2021/11/25 10:46:39;;;;;;;44.33;15.82;;;;;;;;;;4997879;28;20366;-59
2021/11/25 10:49:05;;;;;;;50.70;17.45;;;;;;;;;;5004338;28;20048;-59
2021/11/25 10:51:33;;;;;;;50.60;17.88;;;;;;;;;;5006753;28;20512;-58
2021/11/25 10:54:19;;;;;;;49.05;17.25;;;;;;;;;;5003507;28;20543;-59
2021/11/25 10:56:46;;;;;;;50.17;18.13;;;;;;;;;;5004360;28;20034;-58
2021/11/25 10:59:15;;;;;;;55.40;19.85;;;;;;;;;;5005414;28;20037;-59
2021/11/25 11:01:46;;;;;;;51.60;18.30;;;;;;;;;;5006034;28;20065;-59
2021/11/25 11:04:13;;;;;;;46.83;17.45;;;;;;;;;;5004479;28;20029;-60
2021/11/25 11:06:40;;;;;;;50.88;17.88;;;;;;;;;;5000653;28;20026;-59
2021/11/25 11:09:08;;;;;;;51.08;18.55;;;;;;;;;;5000493;28;20514;-59
2021/11/25 11:11:37;;;;;;;47.10;18.13;;;;;;;;;;5000592;28;20034;-59
2021/11/25 11:14:20;;;;;;;51.70;16.60;;;;;;;;;;5000540;28;20053;-59
2021/11/25 11:17:05;;;;;;;47.92;16.38;;;;;;;;;;5003785;28;20116;-59
2021/11/25 11:19:30;;;;;;;46.95;17.80;;;;;;;;;;5004059;28;20033;-58
2021/11/25 11:21:58;;;;;;;46.60;16.50;;;;;;;;;;5000543;28;20040;-59
2021/11/25 11:24:30;;;;;;;52.08;17.05;;;;;;;;;;5003013;28;20030;-58
2021/11/25 11:26:59;;;;;;;53.30;18.83;;;;;;;;;;5000378;28;20022;-59
2021/11/25 11:29:33;;;;;;;56.25;19.23;;;;;;;;;;5005048;28;20120;-59
2021/11/25 11:32:02;;;;;;;45.38;16.50;;;;;;;;;;5000040;28;20030;-60
2021/11/25 11:34:28;;;;;;;;;;;;;;;;;;4999673;28;20030;-58
2021/11/25 11:36:55;;;;;;;53.05;17.95;;;;;;;;;;5003752;28;20295;-59
2021/11/25 11:39:25;;;;;;;53.80;17.85;;;;;;;;;;5004093;28;20172;-59
2021/11/25 11:41:56;;;;;;;51.40;17.25;;;;;;;;;;5001305;28;20045;-58
2021/11/25 11:44:23;;;;;;;49.30;17.38;;;;;;;;;;5004816;28;20149;-60
2021/11/25 11:47:01;;;;;;;44.55;16.90;;;;;;;;;;4999823;28;20384;-59
2021/11/25 11:49:27;;;;;;;52.45;17.35;;;;;;;;;;5004588;28;20032;-59
2021/11/25 11:52:23;;;;;;;45.45;15.98;;;;;;;;;;4999574;28;20145;-57
2021/11/25 11:54:57;;;;;;;46.53;16.17;;;;;;;;;;5003055;28;20123;-58
2021/11/25 11:57:43;;;;;;;44.53;16.55;;;;;;;;;;4999736;28;20408;-59
2021/11/25 12:00:21;;;;;;;44.47;15.98;;;;;;;;;;5000895;28;20163;-59
2021/11/25 12:02:51;;;;;;;66.28;21.60;;;;;;;;;;5001073;28;20400;-59
2021/11/25 12:05:35;;;;;;;;;;;;;;;;;;5005289;28;20472;-59
2021/11/25 12:08:28;;;;;;;71.25;19.95;;;;;;;;;;4998903;28;19940;-59
2021/11/25 12:10:54;;;;;;;102.35;26.42;;;;;;;;;;4995848;28;20024;-59
2021/11/25 12:13:19;;;;;;;69.88;21.15;;;;;;;;;;5000234;28;20030;-59
2021/11/25 12:15:45;;;;;;;48.17;18.38;;;;;;;;;;4997641;28;20037;-59
2021/11/25 12:18:33;;;;;;;57.00;19.25;;;;;;;;;;5004003;28;20029;-61
2021/11/25 12:21:00;;;;;;;53.20;17.58;;;;;;;;;;4999384;28;20072;-58
2021/11/25 12:23:41;;;;;;;45.10;16.52;;;;;;;;;;4996807;28;20795;-59
2021/11/25 12:26:07;;;;;;;48.22;16.95;;;;;;;;;;4995921;28;20034;-59
2021/11/25 12:28:42;;;;;;;48.28;16.98;;;;;;;;;;4996931;28;20026;-58
2021/11/25 12:33:46;;;;;;;49.83;18.08;;;;;;;;;;5000916;28;20027;-59
2021/11/25 12:36:34;;;;;;;51.35;18.75;;;;;;;;;;4997402;28;20025;-58
2021/11/25 12:39:01;;;;;;;52.95;18.30;;;;;;;;;;4998697;28;20037;-59
2021/11/25 12:41:27;;;;;;;48.58;17.48;;;;;;;;;;5001435;28;20033;-59
2021/11/25 12:43:53;;;;;;;47.83;17.40;;;;;;;;;;4998406;28;20505;-59
2021/11/25 12:46:19;;;;;;;55.50;20.13;;;;;;;;;;4997588;28;20121;-60
2021/11/25 12:48:51;;;;;;;52.85;19.08;;;;;;;;;;4996489;28;20030;-59
2021/11/25 12:51:19;;;;;;;47.28;17.15;;;;;;;;;;4997566;28;20041;-58
2021/11/25 12:53:51;;;;;;;45.03;16.75;;;;;;;;;;5001934;28;20045;-60
2021/11/25 12:56:23;;;;;;;46.75;18.10;;;;;;;;;;4996031;28;20058;-59
2021/11/25 12:59:03;;;;;;;62.30;19.75;;;;;;;;;;4998344;28;20420;-58
2021/11/25 13:01:34;;;;;;;57.90;19.73;;;;;;;;;;4997426;28;20586;-59
2021/11/25 13:04:10;;;;;;;48.58;18.35;;;;;;;;;;5001744;28;20029;-59
2021/11/25 13:06:38;;;;;;;52.50;18.88;;;;;;;;;;5001519;28;20032;-59
2021/11/25 13:09:08;;;;;;;52.47;20.55;;;;;;;;;;5001050;28;20577;-58
2021/11/25 13:11:37;;;;;;;57.92;20.27;;;;;;;;;;4993754;28;20045;-58
2021/11/25 13:14:15;;;;;;;56.50;20.45;;;;;;;;;;5002138;28;20034;-59
2021/11/25 13:16:48;;;;;;;53.17;18.52;;;;;;;;;;4996488;28;20420;-58
2021/11/25 13:19:16;;;;;;;57.63;19.67;;;;;;;;;;5000482;28;20053;-59
2021/11/25 13:21:45;;;;;;;62.30;21.75;;;;;;;;;;4998559;28;20084;-58
2021/11/25 13:24:31;;;;;;;48.92;20.08;;;;;;;;;;4993475;28;20056;-59
2021/11/25 13:27:04;;;;;;;59.78;20.75;;;;;;;;;;5001568;28;20038;-59
2021/11/25 13:29:38;;;;;;;56.63;21.17;;;;;;;;;;5001368;28;20030;-59
2021/11/25 13:32:24;;;;;;;64.55;21.35;;;;;;;;;;4997925;28;20411;-60
2021/11/25 13:34:52;;;;;;;60.75;21.58;;;;;;;;;;5005671;28;20030;-59
2021/11/25 13:37:38;;;;;;;58.88;23.17;;;;;;;;;;5008332;28;20018;-60
2021/11/25 13:40:07;;;;;;;63.80;22.88;;;;;;;;;;5006933;28;20096;-60
2021/11/25 13:42:37;;;;;;;62.10;21.63;;;;;;;;;;5006691;28;20030;-59
2021/11/25 13:45:05;;;;;;;59.97;21.00;;;;;;;;;;5004651;28;20041;-59
2021/11/25 13:47:33;;;;;;;55.47;19.58;;;;;;;;;;5001826;28;20089;-60
2021/11/25 13:50:10;;;;;;;63.47;22.75;;;;;;;;;;5004403;28;20508;-59
2021/11/25 13:52:40;;;;;;;66.07;23.48;;;;;;;;;;4999296;28;20038;-59
2021/11/25 13:55:09;;;;;;;64.22;23.60;;;;;;;;;;5001785;28;20041;-59
2021/11/25 13:57:37;;;;;;;60.40;22.50;;;;;;;;;;5003797;28;20572;-58
2021/11/25 14:00:10;;;;;;;60.20;22.45;;;;;;;;;;5003708;28;20049;-59
2021/11/25 14:02:36;;;;;;;62.83;22.92;;;;;;;;;;5003980;28;20079;-59
2021/11/25 14:05:05;;;;;;;61.83;22.80;;;;;;;;;;5001653;28;20021;-60
2021/11/25 14:07:31;;;;;;;61.25;22.48;;;;;;;;;;5003468;28;20156;-59
2021/11/25 14:10:09;;;;;;;63.85;22.63;;;;;;;;;;5002722;28;20502;-59
2021/11/25 14:12:36;;;;;;;60.22;21.83;;;;;;;;;;5004804;28;20041;-59
2021/11/25 14:15:04;;;;;;;62.80;22.30;;;;;;;;;;5002863;28;20595;-58
2021/11/25 14:17:29;;;;;;;57.22;21.13;;;;;;;;;;5000191;28;20022;-58
2021/11/25 14:19:56;;;;;;;61.63;23.77;;;;;;;;;;5002390;28;20037;-59
2021/11/25 14:22:24;;;;;;;66.25;22.90;;;;;;;;;;4999452;28;20066;-58
2021/11/25 14:24:56;;;;;;;58.95;22.30;;;;;;;;;;5000012;28;20583;-59
2021/11/25 14:30:25;;;;;;;65.22;22.73;;;;;;;;;;4997922;28;20065;-58
2021/11/25 14:32:58;;;;;;;58.20;21.70;;;;;;;;;;4997205;28;20125;-59
2021/11/25 14:35:24;;;;;;;62.97;23.10;;;;;;;;;;4999138;28;20295;-58